createdAt,value
2023-08-28T00:00:53.383Z,27.30
2023-08-28T00:01:53.399Z,27.33
2023-08-28T00:02:53.371Z,27.23
2023-08-28T00:03:53.348Z,27.21
2023-08-28T00:04:53.333Z,27.21
2023-08-28T00:05:53.291Z,27.21
2023-08-28T00:06:53.293Z,27.23
2023-08-28T00:07:53.289Z,27.19
2023-08-28T00:08:53.270Z,27.26
2023-08-28T00:09:53.257Z,27.14
2023-08-28T00:10:53.286Z,27.12
2023-08-28T00:11:53.207Z,27.16
2023-08-28T00:12:53.227Z,27.19
2023-08-28T00:13:53.184Z,27.14
2023-08-28T00:14:53.182Z,27.23
2023-08-28T00:15:53.230Z,27.14
2023-08-28T00:16:53.154Z,27.17
2023-08-28T00:17:53.178Z,27.25
2023-08-28T00:18:53.152Z,27.19
2023-08-28T00:19:53.123Z,27.25
2023-08-28T00:20:53.137Z,27.33
2023-08-28T00:21:53.112Z,27.28
2023-08-28T00:22:53.074Z,27.26
2023-08-28T00:23:53.052Z,27.35
2023-08-28T00:24:53.034Z,27.25
2023-08-28T00:25:53.031Z,27.30
2023-08-28T00:26:53.012Z,27.32
2023-08-28T00:27:53.011Z,27.44
2023-08-28T00:28:53.009Z,27.37
2023-08-28T00:29:52.995Z,27.26
2023-08-28T00:30:52.962Z,27.37
2023-08-28T00:31:53.029Z,27.35
2023-08-28T00:32:52.985Z,27.41
2023-08-28T00:33:52.912Z,27.33
2023-08-28T00:34:52.924Z,27.44
2023-08-28T00:35:52.970Z,27.44
2023-08-28T00:36:52.897Z,27.42
2023-08-28T00:37:52.869Z,27.33
2023-08-28T00:38:52.843Z,27.37
2023-08-28T00:39:52.878Z,27.33
2023-08-28T00:40:52.843Z,27.46
2023-08-28T00:41:52.829Z,27.35
2023-08-28T00:42:52.819Z,27.48
2023-08-28T00:43:52.786Z,27.44
2023-08-28T00:44:52.766Z,27.41
2023-08-28T00:45:52.787Z,27.48
2023-08-28T00:46:52.774Z,27.51
2023-08-28T00:47:52.755Z,27.59
2023-08-28T00:48:52.723Z,27.50
2023-08-28T00:49:52.724Z,27.57
2023-08-28T00:50:52.713Z,27.62
2023-08-28T00:51:52.694Z,27.66
2023-08-28T00:52:52.663Z,27.55
2023-08-28T00:53:52.695Z,27.50
2023-08-28T00:54:52.634Z,27.59
2023-08-28T00:55:52.623Z,27.53
2023-08-28T00:56:52.616Z,27.51
2023-08-28T00:57:52.620Z,27.61
2023-08-28T00:58:52.589Z,27.50
2023-08-28T00:59:52.580Z,27.68
2023-08-28T01:00:52.580Z,27.61
2023-08-28T01:01:52.544Z,27.53
2023-08-28T01:02:52.594Z,27.51
2023-08-28T01:03:52.516Z,27.50
2023-08-28T01:04:52.565Z,27.50
2023-08-28T01:05:52.491Z,27.51
2023-08-28T01:06:52.510Z,27.51
2023-08-28T01:07:52.461Z,27.62
2023-08-28T01:08:52.444Z,27.61
2023-08-28T01:09:52.451Z,27.57
2023-08-28T01:10:52.419Z,27.42
2023-08-28T01:11:52.402Z,27.62
2023-08-28T01:12:52.411Z,27.62
2023-08-28T01:13:52.398Z,27.61
2023-08-28T01:14:52.382Z,27.59
2023-08-28T01:15:52.418Z,27.51
2023-08-28T01:16:52.340Z,27.53
2023-08-28T01:17:52.377Z,27.50
2023-08-28T01:18:52.328Z,27.46
2023-08-28T01:19:52.304Z,27.53
2023-08-28T01:20:52.301Z,27.46
2023-08-28T01:21:52.268Z,27.51
2023-08-28T01:22:52.260Z,27.62
2023-08-28T01:23:52.266Z,27.51
2023-08-28T01:24:52.257Z,27.46
2023-08-28T01:25:52.222Z,27.53
2023-08-28T01:26:52.215Z,27.55
2023-08-28T01:27:52.191Z,27.57
2023-08-28T01:28:52.185Z,27.46
2023-08-28T01:29:52.175Z,27.68
2023-08-28T01:30:52.144Z,27.68
2023-08-28T01:31:52.145Z,27.53
2023-08-28T01:32:52.164Z,27.68
2023-08-28T01:33:52.125Z,27.44
2023-08-28T01:34:52.114Z,27.64
2023-08-28T01:35:52.083Z,27.61
2023-08-28T01:36:52.075Z,27.61
2023-08-28T01:37:52.051Z,27.57
2023-08-28T01:38:52.047Z,27.57
2023-08-28T01:39:52.044Z,27.59
2023-08-28T01:40:52.043Z,27.61
2023-08-28T01:41:52.003Z,27.53
2023-08-28T01:42:51.988Z,27.64
2023-08-28T01:43:51.966Z,27.59
2023-08-28T01:44:51.956Z,27.64
2023-08-28T01:45:51.953Z,27.59
2023-08-28T01:46:51.939Z,27.59
2023-08-28T01:47:51.927Z,27.44
2023-08-28T01:48:51.903Z,27.55
2023-08-28T01:49:51.895Z,27.64
2023-08-28T01:50:51.897Z,27.62
2023-08-28T01:51:51.865Z,27.59
2023-08-28T01:52:51.853Z,27.55
2023-08-28T01:53:51.836Z,27.44
2023-08-28T01:54:51.838Z,27.51
2023-08-28T01:55:51.812Z,27.61
2023-08-28T01:56:51.797Z,27.55
2023-08-28T01:57:51.798Z,27.57
2023-08-28T01:58:51.789Z,27.53
2023-08-28T01:59:51.750Z,27.48
2023-08-28T02:00:51.773Z,27.62
2023-08-28T02:01:51.845Z,27.61
2023-08-28T02:02:51.828Z,27.66
2023-08-28T02:03:51.689Z,27.59
2023-08-28T02:04:51.679Z,27.61
2023-08-28T02:05:51.690Z,27.55
2023-08-28T02:06:51.665Z,27.59
2023-08-28T02:07:51.682Z,27.61
2023-08-28T02:08:51.683Z,27.53
2023-08-28T02:09:51.618Z,27.51
2023-08-28T02:10:51.623Z,27.59
2023-08-28T02:11:51.589Z,27.59
2023-08-28T02:12:51.605Z,27.57
2023-08-28T02:13:51.553Z,27.61
2023-08-28T02:14:51.578Z,27.57
2023-08-28T02:15:51.564Z,27.62
2023-08-28T02:16:51.608Z,27.62
2023-08-28T02:17:51.562Z,27.66
2023-08-28T02:18:51.539Z,27.53
2023-08-28T02:19:51.477Z,27.62
2023-08-28T02:20:51.470Z,27.62
2023-08-28T02:21:51.482Z,27.61
2023-08-28T02:22:51.460Z,27.68
2023-08-28T02:23:51.441Z,27.66
2023-08-28T02:24:51.424Z,27.64
2023-08-28T02:25:51.416Z,27.61
2023-08-28T02:26:51.410Z,27.64
2023-08-28T02:27:51.382Z,27.57
2023-08-28T02:28:51.374Z,27.64
2023-08-28T02:29:51.335Z,27.61
2023-08-28T02:30:51.336Z,27.53
2023-08-28T02:31:51.347Z,27.75
2023-08-28T02:32:51.373Z,27.59
2023-08-28T02:33:51.283Z,27.64
2023-08-28T02:34:51.310Z,27.51
2023-08-28T02:35:51.259Z,27.53
2023-08-28T02:36:51.272Z,27.62
2023-08-28T02:37:51.235Z,27.62
2023-08-28T02:38:51.217Z,27.72
2023-08-28T02:39:51.218Z,27.68
2023-08-28T02:40:51.202Z,27.57
2023-08-28T02:41:51.178Z,27.53
2023-08-28T02:42:51.212Z,27.46
2023-08-28T02:43:51.152Z,27.50
2023-08-28T02:44:51.141Z,27.59
2023-08-28T02:45:51.117Z,27.66
2023-08-28T02:46:51.152Z,27.59
2023-08-28T02:47:51.190Z,27.64
2023-08-28T02:48:51.103Z,27.62
2023-08-28T02:49:51.070Z,27.72
2023-08-28T02:50:51.070Z,27.59
2023-08-28T02:51:51.041Z,27.57
2023-08-28T02:52:51.044Z,27.70
2023-08-28T02:53:51.014Z,27.62
2023-08-28T02:54:51.055Z,27.74
2023-08-28T02:55:51.025Z,27.68
2023-08-28T02:56:51.004Z,27.72
2023-08-28T02:57:50.974Z,27.70
2023-08-28T02:58:50.973Z,27.77
2023-08-28T02:59:50.951Z,27.62
2023-08-28T03:00:50.952Z,27.77
2023-08-28T03:01:50.927Z,27.75
2023-08-28T03:02:51.006Z,27.64
2023-08-28T03:03:50.966Z,27.62
2023-08-28T03:04:50.863Z,27.81
2023-08-28T03:05:50.849Z,27.79
2023-08-28T03:06:50.881Z,27.77
2023-08-28T03:07:50.835Z,27.62
2023-08-28T03:08:50.827Z,27.72
2023-08-28T03:09:50.792Z,27.83
2023-08-28T03:10:50.803Z,27.87
2023-08-28T03:11:50.764Z,27.83
2023-08-28T03:12:50.744Z,27.85
2023-08-28T03:13:50.746Z,27.79
2023-08-28T03:14:50.736Z,27.77
2023-08-28T03:15:50.704Z,27.75
2023-08-28T03:16:50.695Z,27.81
2023-08-28T03:17:50.718Z,27.70
2023-08-28T03:18:50.675Z,27.79
2023-08-28T03:19:50.651Z,27.77
2023-08-28T03:20:50.639Z,27.70
2023-08-28T03:21:50.634Z,27.72
2023-08-28T03:22:50.634Z,27.81
2023-08-28T03:23:50.604Z,27.85
2023-08-28T03:24:50.600Z,27.87
2023-08-28T03:25:50.599Z,27.81
2023-08-28T03:26:50.584Z,27.83
2023-08-28T03:27:50.546Z,27.81
2023-08-28T03:28:50.563Z,27.72
2023-08-28T03:29:50.515Z,27.94
2023-08-28T03:30:50.512Z,27.87
2023-08-28T03:31:50.532Z,27.94
2023-08-28T03:32:50.551Z,27.72
2023-08-28T03:33:50.469Z,27.77
2023-08-28T03:34:50.497Z,27.72
2023-08-28T03:35:50.459Z,27.87
2023-08-28T03:36:50.446Z,27.74
2023-08-28T03:37:50.448Z,27.64
2023-08-28T03:38:50.406Z,27.59
2023-08-28T03:39:50.419Z,27.87
2023-08-28T03:40:50.382Z,27.79
2023-08-28T03:41:50.357Z,27.79
2023-08-28T03:42:50.351Z,27.72
2023-08-28T03:43:50.417Z,27.74
2023-08-28T03:44:50.323Z,27.62
2023-08-28T03:45:50.497Z,27.74
2023-08-28T03:46:50.292Z,27.72
2023-08-28T03:47:50.332Z,27.72
2023-08-28T03:48:50.255Z,27.77
2023-08-28T03:49:50.289Z,27.79
2023-08-28T03:50:50.228Z,27.66
2023-08-28T03:51:50.223Z,27.81
2023-08-28T03:52:50.225Z,27.61
2023-08-28T03:53:50.190Z,27.75
2023-08-28T03:54:50.190Z,27.59
2023-08-28T03:55:50.248Z,27.62
2023-08-28T03:56:50.151Z,27.74
2023-08-28T03:57:50.140Z,27.70
2023-08-28T03:58:50.121Z,27.68
2023-08-28T03:59:50.117Z,27.74
2023-08-28T04:00:50.096Z,27.72
2023-08-28T04:01:50.185Z,27.81
2023-08-28T04:02:50.104Z,27.74
2023-08-28T04:03:50.191Z,27.68
2023-08-28T04:05:02.042Z,27.72
2023-08-28T04:05:50.046Z,27.61
2023-08-28T04:06:50.011Z,27.66
2023-08-28T04:07:50.019Z,27.62
2023-08-28T04:08:50.007Z,27.66
2023-08-28T04:09:49.977Z,27.66
2023-08-28T04:10:49.967Z,27.62
2023-08-28T04:11:49.963Z,27.75
2023-08-28T04:12:49.955Z,27.72
2023-08-28T04:13:49.916Z,27.75
2023-08-28T04:14:49.921Z,27.79
2023-08-28T04:15:51.034Z,27.72
2023-08-28T04:16:49.874Z,27.79
2023-08-28T04:17:49.964Z,27.74
2023-08-28T04:18:49.879Z,27.75
2023-08-28T04:19:49.894Z,27.77
2023-08-28T04:20:49.830Z,27.62
2023-08-28T04:21:49.821Z,27.68
2023-08-28T04:22:49.793Z,27.57
2023-08-28T04:23:49.779Z,27.70
2023-08-28T04:24:49.772Z,27.68
2023-08-28T04:25:49.772Z,27.66
2023-08-28T04:26:49.740Z,27.55
2023-08-28T04:27:49.735Z,27.68
2023-08-28T04:28:49.702Z,27.61
2023-08-28T04:29:50.598Z,27.59
2023-08-28T04:30:49.700Z,27.53
2023-08-28T04:31:49.742Z,27.50
2023-08-28T04:32:49.694Z,27.55
2023-08-28T04:33:49.656Z,27.59
2023-08-28T04:34:49.623Z,27.48
2023-08-28T04:35:49.619Z,27.53
2023-08-28T04:36:49.647Z,27.46
2023-08-28T04:37:49.623Z,27.59
2023-08-28T04:38:49.572Z,27.62
2023-08-28T04:39:49.563Z,27.50
2023-08-28T04:40:49.561Z,27.59
2023-08-28T04:41:49.530Z,27.53
2023-08-28T04:42:49.580Z,27.55
2023-08-28T04:43:49.514Z,27.50
2023-08-28T04:44:49.501Z,27.64
2023-08-28T04:45:49.500Z,27.64
2023-08-28T04:46:49.497Z,27.62
2023-08-28T04:47:49.499Z,27.61
2023-08-28T04:48:49.432Z,27.59
2023-08-28T04:49:49.441Z,27.66
2023-08-28T04:50:49.410Z,27.59
2023-08-28T04:51:49.416Z,27.57
2023-08-28T04:52:49.493Z,27.48
2023-08-28T04:53:49.364Z,27.48
2023-08-28T04:54:49.346Z,27.53
2023-08-28T04:55:49.377Z,27.50
2023-08-28T04:56:49.319Z,27.51
2023-08-28T04:57:49.315Z,27.55
2023-08-28T04:58:49.326Z,27.57
2023-08-28T04:59:49.307Z,27.57
2023-08-28T05:00:49.283Z,27.53
2023-08-28T05:01:49.272Z,27.55
2023-08-28T05:02:49.252Z,27.66
2023-08-28T05:03:49.293Z,27.59
2023-08-28T05:04:49.236Z,27.61
2023-08-28T05:05:49.224Z,27.68
2023-08-28T05:06:49.200Z,27.62
2023-08-28T05:07:49.181Z,27.61
2023-08-28T05:08:49.186Z,27.48
2023-08-28T05:09:49.169Z,27.74
2023-08-28T05:10:49.170Z,27.50
2023-08-28T05:11:49.151Z,27.61
2023-08-28T05:12:49.120Z,27.66
2023-08-28T05:13:49.133Z,27.55
2023-08-28T05:14:49.095Z,27.62
2023-08-28T05:15:49.163Z,27.74
2023-08-28T05:16:49.065Z,27.55
2023-08-28T05:17:49.100Z,27.59
2023-08-28T05:18:49.040Z,27.55
2023-08-28T05:19:49.040Z,27.57
2023-08-28T05:20:49.017Z,27.64
2023-08-28T05:21:49.004Z,27.68
2023-08-28T05:22:48.986Z,27.46
2023-08-28T05:23:49.019Z,27.48
2023-08-28T05:24:48.953Z,27.57
2023-08-28T05:25:48.941Z,27.48
2023-08-28T05:26:48.937Z,27.44
2023-08-28T05:27:48.920Z,27.51
2023-08-28T05:28:48.905Z,27.50
2023-08-28T05:29:48.895Z,27.44
2023-08-28T05:30:48.875Z,27.46
2023-08-28T05:31:48.872Z,27.44
2023-08-28T05:32:48.874Z,27.42
2023-08-28T05:33:48.860Z,27.42
2023-08-28T05:34:51.017Z,27.48
2023-08-28T05:35:48.822Z,27.35
2023-08-28T05:36:48.808Z,27.41
2023-08-28T05:37:48.783Z,27.32
2023-08-28T05:38:48.792Z,27.42
2023-08-28T05:39:48.808Z,27.37
2023-08-28T05:40:48.746Z,27.25
2023-08-28T05:41:48.761Z,27.39
2023-08-28T05:42:48.760Z,27.39
2023-08-28T05:43:48.705Z,27.39
2023-08-28T05:44:48.687Z,27.37
2023-08-28T05:45:48.679Z,27.28
2023-08-28T05:46:48.674Z,27.33
2023-08-28T05:47:48.721Z,27.28
2023-08-28T05:48:48.629Z,27.23
2023-08-28T05:49:48.633Z,27.41
2023-08-28T05:50:48.602Z,27.42
2023-08-28T05:51:48.605Z,27.39
2023-08-28T05:52:48.582Z,27.37
2023-08-28T05:53:48.571Z,27.37
2023-08-28T05:54:48.559Z,27.35
2023-08-28T05:55:48.556Z,27.35
2023-08-28T05:56:48.516Z,27.26
2023-08-28T05:57:48.510Z,27.26
2023-08-28T05:58:48.510Z,27.17
2023-08-28T05:59:48.480Z,27.14
2023-08-28T06:00:48.486Z,27.12
2023-08-28T06:01:48.444Z,27.16
2023-08-28T06:02:48.581Z,26.98
2023-08-28T06:03:48.446Z,27.03
2023-08-28T06:04:49.499Z,27.05
2023-08-28T06:05:48.404Z,27.10
2023-08-28T06:06:48.405Z,27.17
2023-08-28T06:07:48.373Z,27.05
2023-08-28T06:08:48.360Z,27.12
2023-08-28T06:09:48.337Z,27.16
2023-08-28T06:10:48.321Z,27.19
2023-08-28T06:11:48.305Z,27.07
2023-08-28T06:12:48.326Z,27.07
2023-08-28T06:13:48.316Z,27.17
2023-08-28T06:14:48.268Z,27.12
2023-08-28T06:15:48.259Z,27.14
2023-08-28T06:16:48.292Z,27.16
2023-08-28T06:17:48.332Z,27.09
2023-08-28T06:18:48.234Z,27.12
2023-08-28T06:19:48.210Z,27.09
2023-08-28T06:20:48.187Z,27.14
2023-08-28T06:21:48.193Z,27.09
2023-08-28T06:22:48.169Z,27.19
2023-08-28T06:23:48.157Z,27.17
2023-08-28T06:24:48.127Z,27.14
2023-08-28T06:25:48.114Z,27.12
2023-08-28T06:26:48.103Z,27.10
2023-08-28T06:27:48.111Z,27.17
2023-08-28T06:28:48.074Z,27.12
2023-08-28T06:29:48.069Z,27.12
2023-08-28T06:30:48.054Z,27.12
2023-08-28T06:31:48.038Z,27.12
2023-08-28T06:32:48.074Z,27.12
2023-08-28T06:33:48.029Z,27.23
2023-08-28T06:34:47.998Z,27.10
2023-08-28T06:35:47.998Z,27.19
2023-08-28T06:36:47.968Z,27.19
2023-08-28T06:37:47.964Z,27.25
2023-08-28T06:38:47.967Z,27.14
2023-08-28T06:39:47.928Z,27.16
2023-08-28T06:40:47.923Z,27.21
2023-08-28T06:41:47.930Z,27.17
2023-08-28T06:42:47.930Z,27.25
2023-08-28T06:43:47.885Z,27.17
2023-08-28T06:44:47.861Z,27.32
2023-08-28T06:45:47.862Z,27.17
2023-08-28T06:46:47.935Z,27.21
2023-08-28T06:47:47.859Z,27.19
2023-08-28T06:48:47.838Z,27.19
2023-08-28T06:49:47.805Z,27.21
2023-08-28T06:50:47.803Z,27.16
2023-08-28T06:51:47.781Z,27.30
2023-08-28T06:52:47.746Z,27.10
2023-08-28T06:53:47.759Z,27.12
2023-08-28T06:54:51.928Z,27.17
2023-08-28T06:55:47.709Z,27.07
2023-08-28T06:56:47.689Z,27.09
2023-08-28T06:57:47.709Z,27.16
2023-08-28T06:58:47.662Z,27.23
2023-08-28T06:59:47.767Z,27.21
2023-08-28T07:00:47.699Z,27.26
2023-08-28T07:01:47.622Z,27.28
2023-08-28T07:02:47.631Z,27.19
2023-08-28T07:03:47.726Z,27.30
2023-08-28T07:04:48.058Z,27.19
2023-08-28T07:05:47.572Z,27.23
2023-08-28T07:06:47.569Z,27.26
2023-08-28T07:07:47.562Z,27.28
2023-08-28T07:08:47.542Z,27.30
2023-08-28T07:09:47.597Z,27.26
2023-08-28T07:10:47.508Z,27.30
2023-08-28T07:11:47.507Z,27.32
2023-08-28T07:12:47.498Z,27.35
2023-08-28T07:13:47.476Z,27.39
2023-08-28T07:14:47.453Z,27.35
2023-08-28T07:15:47.461Z,27.28
2023-08-28T07:16:47.480Z,27.30
2023-08-28T07:17:47.553Z,27.23
2023-08-28T07:18:47.401Z,27.32
2023-08-28T07:19:47.433Z,27.33
2023-08-28T07:20:47.368Z,27.28
2023-08-28T07:21:47.357Z,27.35
2023-08-28T07:22:47.338Z,27.28
2023-08-28T07:23:49.127Z,27.41
2023-08-28T07:24:47.405Z,27.42
2023-08-28T07:25:47.321Z,27.30
2023-08-28T07:26:47.284Z,27.35
2023-08-28T07:27:47.323Z,27.41
2023-08-28T07:28:47.259Z,27.39
2023-08-28T07:29:47.258Z,27.42
2023-08-28T07:30:47.306Z,27.30
2023-08-28T07:31:47.215Z,27.41
2023-08-28T07:32:47.249Z,27.39
2023-08-28T07:33:47.213Z,27.46
2023-08-28T07:34:47.172Z,27.44
2023-08-28T07:35:47.193Z,27.39
2023-08-28T07:36:47.186Z,27.46
2023-08-28T07:37:47.149Z,27.46
2023-08-28T07:38:47.128Z,27.46
2023-08-28T07:39:47.187Z,27.51
2023-08-28T07:40:47.101Z,27.48
2023-08-28T07:41:47.087Z,27.57
2023-08-28T07:42:47.070Z,27.62
2023-08-28T07:43:47.085Z,27.50
2023-08-28T07:44:47.039Z,27.51
2023-08-28T07:45:47.061Z,27.37
2023-08-28T07:46:47.013Z,27.42
2023-08-28T07:47:47.050Z,27.37
2023-08-28T07:48:47.039Z,27.41
2023-08-28T07:49:46.971Z,27.39
2023-08-28T07:50:46.998Z,27.33
2023-08-28T07:51:46.939Z,27.33
2023-08-28T07:52:46.941Z,27.25
2023-08-28T07:53:46.929Z,27.30
2023-08-28T07:54:46.949Z,27.21
2023-08-28T07:55:46.919Z,27.23
2023-08-28T07:56:46.903Z,27.23
2023-08-28T07:57:46.871Z,27.35
2023-08-28T07:58:46.882Z,27.16
2023-08-28T07:59:46.871Z,27.14
2023-08-28T08:00:46.846Z,27.07
2023-08-28T08:01:46.898Z,27.26
2023-08-28T08:02:46.847Z,27.28
2023-08-28T08:03:46.816Z,27.21
2023-08-28T08:04:46.779Z,27.32
2023-08-28T08:05:46.788Z,27.21
2023-08-28T08:06:46.738Z,27.12
2023-08-28T08:07:46.724Z,27.35
2023-08-28T08:08:46.722Z,27.30
2023-08-28T08:09:46.712Z,27.37
2023-08-28T08:10:46.718Z,27.33
2023-08-28T08:11:46.693Z,27.39
2023-08-28T08:12:46.658Z,27.26
2023-08-28T08:13:46.643Z,27.46
2023-08-28T08:14:46.644Z,27.37
2023-08-28T08:15:46.615Z,27.41
2023-08-28T08:16:46.636Z,27.39
2023-08-28T08:17:46.634Z,27.25
2023-08-28T08:18:46.589Z,27.48
2023-08-28T08:19:46.558Z,27.28
2023-08-28T08:20:46.567Z,27.33
2023-08-28T08:21:46.527Z,27.46
2023-08-28T08:22:46.512Z,27.42
2023-08-28T08:23:46.508Z,27.37
2023-08-28T08:24:46.489Z,27.50
2023-08-28T08:25:46.481Z,27.39
2023-08-28T08:26:46.470Z,27.42
2023-08-28T08:27:46.459Z,27.28
2023-08-28T08:28:46.427Z,27.41
2023-08-28T08:29:46.408Z,27.51
2023-08-28T08:30:46.400Z,27.30
2023-08-28T08:31:46.450Z,27.33
2023-08-28T08:32:46.441Z,27.44
2023-08-28T08:33:46.359Z,27.51
2023-08-28T08:34:46.375Z,27.37
2023-08-28T08:35:46.333Z,27.37
2023-08-28T08:36:46.329Z,27.46
2023-08-28T08:37:46.325Z,27.33
2023-08-28T08:38:46.306Z,27.17
2023-08-28T08:39:46.300Z,27.28
2023-08-28T08:40:46.288Z,27.26
2023-08-28T08:41:46.279Z,27.37
2023-08-28T08:42:46.254Z,27.33
2023-08-28T08:43:46.226Z,27.32
2023-08-28T08:44:46.238Z,27.25
2023-08-28T08:45:46.237Z,27.37
2023-08-28T08:46:48.109Z,27.35
2023-08-28T08:47:46.196Z,27.30
2023-08-28T08:48:46.194Z,27.32
2023-08-28T08:49:46.136Z,27.25
2023-08-28T08:50:46.140Z,27.37
2023-08-28T08:51:46.113Z,27.32
2023-08-28T08:52:46.110Z,27.41
2023-08-28T08:53:46.086Z,27.28
2023-08-28T08:54:46.128Z,27.23
2023-08-28T08:55:46.080Z,27.30
2023-08-28T08:56:46.046Z,27.14
2023-08-28T08:57:46.045Z,27.25
2023-08-28T08:58:46.026Z,27.10
2023-08-28T08:59:45.998Z,27.30
2023-08-28T09:00:46.000Z,27.25
2023-08-28T09:01:46.056Z,27.23
2023-08-28T09:02:46.158Z,27.37
2023-08-28T09:03:45.994Z,27.26
2023-08-28T09:04:45.940Z,27.41
2023-08-28T09:05:45.941Z,27.12
2023-08-28T09:06:45.909Z,27.21
2023-08-28T09:07:45.898Z,27.25
2023-08-28T09:08:45.935Z,27.28
2023-08-28T09:09:45.878Z,27.25
2023-08-28T09:10:45.855Z,27.19
2023-08-28T09:11:45.843Z,27.30
2023-08-28T09:12:45.856Z,27.16
2023-08-28T09:13:45.826Z,27.26
2023-08-28T09:14:45.810Z,27.32
2023-08-28T09:15:45.826Z,27.23
2023-08-28T09:16:45.772Z,27.39
2023-08-28T09:17:45.838Z,27.30
2023-08-28T09:18:45.764Z,27.35
2023-08-28T09:19:45.778Z,27.48
2023-08-28T09:20:45.726Z,27.32
2023-08-28T09:21:45.767Z,27.33
2023-08-28T09:22:53.343Z,27.55
2023-08-28T09:23:47.986Z,27.44
2023-08-28T09:24:45.707Z,27.46
2023-08-28T09:25:45.669Z,27.55
2023-08-28T09:26:45.661Z,27.53
2023-08-28T09:27:45.661Z,27.64
2023-08-28T09:28:45.628Z,27.61
2023-08-28T09:29:45.606Z,27.62
2023-08-28T09:30:45.592Z,27.70
2023-08-28T09:31:45.589Z,27.68
2023-08-28T09:32:45.607Z,27.62
2023-08-28T09:33:57.208Z,27.66
2023-08-28T09:34:45.534Z,27.75
2023-08-28T09:35:45.558Z,27.64
2023-08-28T09:36:45.731Z,27.75
2023-08-28T09:37:45.541Z,27.83
2023-08-28T09:38:45.525Z,27.70
2023-08-28T09:39:45.478Z,27.81
2023-08-28T09:40:45.451Z,27.62
2023-08-28T09:41:45.475Z,27.59
2023-08-28T09:42:45.449Z,27.64
2023-08-28T09:43:45.424Z,27.72
2023-08-28T09:44:45.443Z,27.79
2023-08-28T09:45:45.531Z,27.83
2023-08-28T09:46:45.369Z,27.83
2023-08-28T09:47:45.399Z,27.79
2023-08-28T09:48:45.364Z,27.85
2023-08-28T09:49:45.328Z,27.79
2023-08-28T09:50:45.345Z,27.81
2023-08-28T09:51:45.321Z,27.74
2023-08-28T09:52:45.325Z,27.75
2023-08-28T09:53:45.301Z,27.62
2023-08-28T09:54:45.255Z,27.64
2023-08-28T09:55:45.264Z,27.85
2023-08-28T09:56:45.273Z,27.79
2023-08-28T09:57:45.218Z,27.77
2023-08-28T09:58:51.792Z,27.70
2023-08-28T09:59:45.211Z,27.70
2023-08-28T10:00:45.257Z,27.74
2023-08-28T10:01:45.226Z,27.79
2023-08-28T10:02:48.296Z,27.74
2023-08-28T10:03:45.208Z,27.68
2023-08-28T10:04:45.151Z,27.68
2023-08-28T10:05:45.130Z,27.74
2023-08-28T10:06:45.123Z,27.74
2023-08-28T10:07:45.083Z,27.74
2023-08-28T10:08:45.076Z,27.62
2023-08-28T10:09:45.053Z,27.59
2023-08-28T10:10:45.037Z,27.50
2023-08-28T10:11:45.017Z,27.48
2023-08-28T10:12:45.012Z,27.35
2023-08-28T10:13:45.019Z,27.37
2023-08-28T10:14:44.981Z,27.33
2023-08-28T10:15:44.975Z,27.25
2023-08-28T10:16:45.014Z,27.32
2023-08-28T10:17:45.006Z,27.33
2023-08-28T10:18:44.935Z,27.26
2023-08-28T10:19:44.920Z,27.17
2023-08-28T10:20:44.911Z,27.12
2023-08-28T10:21:46.012Z,27.09
2023-08-28T10:22:44.894Z,27.05
2023-08-28T10:23:44.884Z,27.01
2023-08-28T10:24:44.858Z,26.89
2023-08-28T10:25:44.834Z,27.03
2023-08-28T10:26:44.815Z,26.93
2023-08-28T10:27:44.808Z,26.72
2023-08-28T10:28:44.801Z,26.67
2023-08-28T10:29:44.776Z,26.53
2023-08-28T10:30:44.792Z,26.62
2023-08-28T10:31:44.824Z,26.52
2023-08-28T10:32:44.769Z,26.65
2023-08-28T10:33:44.724Z,26.55
2023-08-28T10:34:44.719Z,26.48
2023-08-28T10:35:44.708Z,26.60
2023-08-28T10:37:00.610Z,26.53
2023-08-28T10:37:44.668Z,26.38
2023-08-28T10:38:56.512Z,26.42
2023-08-28T10:39:44.646Z,26.47
2023-08-28T10:40:44.650Z,26.28
2023-08-28T10:41:44.624Z,26.42
2023-08-28T10:42:44.633Z,26.36
2023-08-28T10:43:44.581Z,26.18
2023-08-28T10:44:44.601Z,26.02
2023-08-28T10:45:44.559Z,26.20
2023-08-28T10:46:44.558Z,26.02
2023-08-28T10:47:44.621Z,26.00
2023-08-28T10:48:44.513Z,25.99
2023-08-28T10:49:44.503Z,25.94
2023-08-28T10:50:44.495Z,26.00
2023-08-28T10:51:44.484Z,25.92
2023-08-28T10:52:44.452Z,25.89
2023-08-28T10:53:44.474Z,25.97
2023-08-28T10:54:44.444Z,25.84
2023-08-28T10:55:44.454Z,25.89
2023-08-28T10:56:46.163Z,25.91
2023-08-28T10:57:44.915Z,25.95
2023-08-28T10:58:44.482Z,25.83
2023-08-28T10:59:44.430Z,25.83
2023-08-28T11:00:44.440Z,25.89
2023-08-28T11:01:44.409Z,25.84
2023-08-28T11:02:44.393Z,25.91
2023-08-28T11:03:44.325Z,26.02
2023-08-28T11:04:44.359Z,25.94
2023-08-28T11:05:44.306Z,26.03
2023-08-28T11:06:44.324Z,26.12
2023-08-28T11:07:44.263Z,26.07
2023-08-28T11:08:44.267Z,26.05
2023-08-28T11:09:44.240Z,26.02
2023-08-28T11:10:44.236Z,26.05
2023-08-28T11:11:44.219Z,26.02
2023-08-28T11:12:44.211Z,26.00
2023-08-28T11:13:44.191Z,26.05
2023-08-28T11:14:53.344Z,26.12
2023-08-28T11:15:44.175Z,26.10
2023-08-28T11:16:44.197Z,26.02
2023-08-28T11:17:44.188Z,25.92
2023-08-28T11:18:44.132Z,25.94
2023-08-28T11:19:44.123Z,25.81
2023-08-28T11:20:44.121Z,25.73
2023-08-28T11:21:44.123Z,25.86
2023-08-28T11:22:44.080Z,25.81
2023-08-28T11:23:44.118Z,25.84
2023-08-28T11:24:44.056Z,25.71
2023-08-28T11:25:44.078Z,25.70
2023-08-28T11:26:44.058Z,25.79
2023-08-28T11:27:43.999Z,25.79
2023-08-28T11:28:44.006Z,25.71
2023-08-28T11:29:43.996Z,25.71
2023-08-28T11:30:43.973Z,25.68
2023-08-28T11:31:43.967Z,25.62
2023-08-28T11:32:44.015Z,25.70
2023-08-28T11:33:43.928Z,25.71
2023-08-28T11:34:44.017Z,25.63
2023-08-28T11:35:43.914Z,25.67
2023-08-28T11:36:43.911Z,25.59
2023-08-28T11:37:43.873Z,25.76
2023-08-28T11:38:43.874Z,25.73
2023-08-28T11:39:43.866Z,25.71
2023-08-28T11:40:43.849Z,25.60
2023-08-28T11:41:43.838Z,25.71
2023-08-28T11:42:43.817Z,25.68
2023-08-28T11:43:43.825Z,25.75
2023-08-28T11:44:43.779Z,25.79
2023-08-28T11:45:43.848Z,25.75
2023-08-28T11:46:43.811Z,25.63
2023-08-28T11:47:43.857Z,25.73
2023-08-28T11:48:43.773Z,25.78
2023-08-28T11:49:43.734Z,25.84
2023-08-28T11:50:43.723Z,25.87
2023-08-28T11:51:43.755Z,25.94
2023-08-28T11:52:43.763Z,25.83
2023-08-28T11:53:44.124Z,25.83
2023-08-28T11:54:43.677Z,25.79
2023-08-28T11:55:43.644Z,25.83
2023-08-28T11:56:43.668Z,25.95
2023-08-28T11:57:43.616Z,25.92
2023-08-28T11:58:43.714Z,25.91
2023-08-28T11:59:43.601Z,25.89
2023-08-28T12:00:43.586Z,25.86
2023-08-28T12:01:43.618Z,26.00
2023-08-28T12:02:43.692Z,25.97
2023-08-28T12:03:43.928Z,25.94
2023-08-28T12:04:43.665Z,26.10
2023-08-28T12:05:43.536Z,25.89
2023-08-28T12:06:43.541Z,25.89
2023-08-28T12:07:44.008Z,26.02
2023-08-28T12:08:43.487Z,26.08
2023-08-28T12:09:43.475Z,25.92
2023-08-28T12:10:43.454Z,26.10
2023-08-28T12:11:43.465Z,26.00
2023-08-28T12:12:43.442Z,26.08
2023-08-28T12:13:43.419Z,26.08
2023-08-28T12:14:43.399Z,25.97
2023-08-28T12:15:43.411Z,26.03
2023-08-28T12:16:43.393Z,26.18
2023-08-28T12:17:43.401Z,26.30
2023-08-28T12:18:43.369Z,26.05
2023-08-28T12:19:43.325Z,26.08
2023-08-28T12:20:43.337Z,26.12
2023-08-28T12:21:43.309Z,25.99
2023-08-28T12:22:43.361Z,26.10
2023-08-28T12:23:43.282Z,26.07
2023-08-28T12:24:43.322Z,26.12
2023-08-28T12:25:43.251Z,26.18
2023-08-28T12:26:43.242Z,26.02
2023-08-28T12:27:44.142Z,26.18
2023-08-28T12:28:43.220Z,25.95
2023-08-28T12:29:43.208Z,26.05
2023-08-28T12:30:43.272Z,25.97
2023-08-28T12:31:43.176Z,25.97
2023-08-28T12:32:43.215Z,25.94
2023-08-28T12:33:43.172Z,25.81
2023-08-28T12:34:43.257Z,25.99
2023-08-28T12:35:43.284Z,25.92
2023-08-28T12:36:44.068Z,25.86
2023-08-28T12:37:43.095Z,25.84
2023-08-28T12:38:43.087Z,25.92
2023-08-28T12:39:43.094Z,26.05
2023-08-28T12:40:43.050Z,25.99
2023-08-28T12:41:43.040Z,25.94
2023-08-28T12:42:43.036Z,25.99
2023-08-28T12:43:43.020Z,26.03
2023-08-28T12:44:43.015Z,25.97
2023-08-28T12:45:42.978Z,26.00
2023-08-28T12:46:42.970Z,26.08
2023-08-28T12:47:43.108Z,26.05
2023-08-28T12:48:42.965Z,25.84
2023-08-28T12:49:42.944Z,25.95
2023-08-28T12:50:42.981Z,25.94
2023-08-28T12:51:43.058Z,26.12
2023-08-28T12:52:42.939Z,25.92